sensor_id;sensor_type;location;lat;lon;timestamp;pressure;altitude;pressure_sealevel;temperature;humidity
6829;BME280;17930;48.592;8.868;2023-03-23T00:01:54;96233.66;;;11.29;100.00
6829;BME280;17930;48.592;8.868;2023-03-23T00:04:21;96237.44;;;11.23;100.00
6829;BME280;17930;48.592;8.868;2023-03-23T00:06:51;96238.59;;;11.18;100.00
6829;BME280;17930;48.592;8.868;2023-03-23T00:09:18;96237.44;;;11.23;100.00
6829;BME280;17930;48.592;8.868;2023-03-23T00:11:49;96228.84;;;11.23;100.00
6829;BME280;17930;48.592;8.868;2023-03-23T00:14:16;96226.31;;;11.18;100.00
6829;BME280;17930;48.592;8.868;2023-03-23T00:16:48;96227.84;;;11.19;100.00
6829;BME280;17930;48.592;8.868;2023-03-23T00:19:15;96215.78;;;11.23;100.00
6829;BME280;17930;48.592;8.868;2023-03-23T00:21:42;96210.69;;;11.31;100.00
6829;BME280;17930;48.592;8.868;2023-03-23T00:24:13;96209.47;;;11.56;100.00
6829;BME280;17930;48.592;8.868;2023-03-23T00:26:42;96210.53;;;11.68;100.00
6829;BME280;17930;48.592;8.868;2023-03-23T00:29:13;96212.94;;;11.51;100.00
6829;BME280;17930;48.592;8.868;2023-03-23T00:31:39;96205.31;;;11.68;100.00
6829;BME280;17930;48.592;8.868;2023-03-23T00:34:06;96197.94;;;11.70;100.00
6829;BME280;17930;48.592;8.868;2023-03-23T00:36:34;96195.41;;;11.65;100.00
6829;BME280;17930;48.592;8.868;2023-03-23T00:39:08;96184.00;;;11.88;100.00
6829;BME280;17930;48.592;8.868;2023-03-23T00:41:36;96188.44;;;11.74;100.00
6829;BME280;17930;48.592;8.868;2023-03-23T00:44:03;96184.19;;;11.78;100.00
6829;BME280;17930;48.592;8.868;2023-03-23T00:46:30;96187.09;;;11.63;100.00
6829;BME280;17930;48.592;8.868;2023-03-23T00:48:57;96186.72;;;11.56;100.00
6829;BME280;17930;48.592;8.868;2023-03-23T00:51:24;96183.91;;;11.66;100.00
6829;BME280;17930;48.592;8.868;2023-03-23T00:53:51;96183.03;;;11.71;100.00
6829;BME280;17930;48.592;8.868;2023-03-23T00:56:18;96185.53;;;11.62;100.00
6829;BME280;17930;48.592;8.868;2023-03-23T00:58:45;96183.81;;;11.58;100.00
6829;BME280;17930;48.592;8.868;2023-03-23T01:01:12;96176.84;;;11.53;100.00
6829;BME280;17930;48.592;8.868;2023-03-23T01:03:39;96177.44;;;11.50;100.00
6829;BME280;17930;48.592;8.868;2023-03-23T01:06:07;96178.56;;;11.44;100.00
6829;BME280;17930;48.592;8.868;2023-03-23T01:08:38;96176.03;;;11.39;100.00
6829;BME280;17930;48.592;8.868;2023-03-23T01:11:12;96179.91;;;11.28;100.00
6829;BME280;17930;48.592;8.868;2023-03-23T01:13:40;96172.06;;;11.28;100.00
6829;BME280;17930;48.592;8.868;2023-03-23T01:16:09;96167.13;;;11.14;100.00
6829;BME280;17930;48.592;8.868;2023-03-23T01:18:36;96164.25;;;11.02;100.00
6829;BME280;17930;48.592;8.868;2023-03-23T01:21:04;96169.06;;;11.08;100.00
6829;BME280;17930;48.592;8.868;2023-03-23T01:23:32;96166.94;;;10.97;100.00
6829;BME280;17930;48.592;8.868;2023-03-23T01:26:02;96161.88;;;10.87;100.00
6829;BME280;17930;48.592;8.868;2023-03-23T01:28:29;96160.31;;;10.86;100.00
6829;BME280;17930;48.592;8.868;2023-03-23T01:31:00;96156.66;;;10.87;100.00
6829;BME280;17930;48.592;8.868;2023-03-23T01:33:28;96144.22;;;11.24;100.00
6829;BME280;17930;48.592;8.868;2023-03-23T01:35:55;96137.75;;;11.35;100.00
6829;BME280;17930;48.592;8.868;2023-03-23T01:38:21;96141.25;;;11.30;100.00
6829;BME280;17930;48.592;8.868;2023-03-23T01:40:48;96141.91;;;11.23;100.00
6829;BME280;17930;48.592;8.868;2023-03-23T01:43:15;96131.38;;;11.14;100.00
6829;BME280;17930;48.592;8.868;2023-03-23T01:45:42;96128.56;;;11.11;100.00
6829;BME280;17930;48.592;8.868;2023-03-23T01:48:13;96126.53;;;11.08;100.00
6829;BME280;17930;48.592;8.868;2023-03-23T01:50:50;96131.88;;;11.16;100.00
6829;BME280;17930;48.592;8.868;2023-03-23T01:53:19;96133.09;;;11.19;100.00
6829;BME280;17930;48.592;8.868;2023-03-23T01:55:47;96136.78;;;11.18;100.00
6829;BME280;17930;48.592;8.868;2023-03-23T01:58:17;96129.16;;;11.34;100.00
6829;BME280;17930;48.592;8.868;2023-03-23T02:00:46;96136.31;;;11.29;100.00
6829;BME280;17930;48.592;8.868;2023-03-23T02:03:14;96128.06;;;11.35;100.00
6829;BME280;17930;48.592;8.868;2023-03-23T02:05:43;96135.44;;;11.33;100.00
6829;BME280;17930;48.592;8.868;2023-03-23T02:08:14;96134.84;;;11.36;100.00
6829;BME280;17930;48.592;8.868;2023-03-23T02:10:41;96135.91;;;11.22;100.00
6829;BME280;17930;48.592;8.868;2023-03-23T02:13:09;96129.06;;;10.99;100.00
6829;BME280;17930;48.592;8.868;2023-03-23T02:15:45;96134.25;;;10.86;100.00
6829;BME280;17930;48.592;8.868;2023-03-23T02:18:24;96125.28;;;10.92;100.00
6829;BME280;17930;48.592;8.868;2023-03-23T02:21:20;96128.06;;;10.82;100.00
6829;BME280;17930;48.592;8.868;2023-03-23T02:24:16;96117.47;;;10.92;100.00
6829;BME280;17930;48.592;8.868;2023-03-23T02:26:53;96120.63;;;10.89;100.00
6829;BME280;17930;48.592;8.868;2023-03-23T02:29:55;96109.78;;;11.35;100.00
6829;BME280;17930;48.592;8.868;2023-03-23T02:32:38;96108.94;;;11.26;100.00
6829;BME280;17930;48.592;8.868;2023-03-23T02:35:11;96105.38;;;11.23;100.00
6829;BME280;17930;48.592;8.868;2023-03-23T02:37:46;96106.34;;;11.26;100.00
6829;BME280;17930;48.592;8.868;2023-03-23T02:40:17;96091.44;;;11.40;100.00
6829;BME280;17930;48.592;8.868;2023-03-23T02:42:49;96083.59;;;11.27;100.00
6829;BME280;17930;48.592;8.868;2023-03-23T02:45:19;96097.72;;;11.13;100.00
6829;BME280;17930;48.592;8.868;2023-03-23T02:47:50;96094.84;;;11.01;100.00
6829;BME280;17930;48.592;8.868;2023-03-23T02:50:22;96080.53;;;11.12;100.00
6829;BME280;17930;48.592;8.868;2023-03-23T02:52:51;96095.03;;;11.18;100.00
6829;BME280;17930;48.592;8.868;2023-03-23T02:55:20;96082.06;;;11.13;100.00
6829;BME280;17930;48.592;8.868;2023-03-23T02:57:51;96084.38;;;11.14;100.00
6829;BME280;17930;48.592;8.868;2023-03-23T03:00:19;96079.38;;;10.91;100.00
6829;BME280;17930;48.592;8.868;2023-03-23T03:02:48;96077.25;;;11.06;100.00
6829;BME280;17930;48.592;8.868;2023-03-23T03:05:26;96067.97;;;10.87;100.00
6829;BME280;17930;48.592;8.868;2023-03-23T03:08:02;96073.94;;;10.74;100.00
6829;BME280;17930;48.592;8.868;2023-03-23T03:10:38;96068.06;;;10.82;100.00
6829;BME280;17930;48.592;8.868;2023-03-23T03:13:12;96068.72;;;10.74;100.00
6829;BME280;17930;48.592;8.868;2023-03-23T03:15:44;96064.84;;;10.72;100.00
6829;BME280;17930;48.592;8.868;2023-03-23T03:18:17;96057.91;;;10.94;100.00
6829;BME280;17930;48.592;8.868;2023-03-23T03:20:48;96064.31;;;11.15;100.00
6829;BME280;17930;48.592;8.868;2023-03-23T03:23:17;96059.66;;;10.98;100.00
6829;BME280;17930;48.592;8.868;2023-03-23T03:25:45;96059.09;;;10.88;100.00
6829;BME280;17930;48.592;8.868;2023-03-23T03:28:16;96057.66;;;10.82;100.00
6829;BME280;17930;48.592;8.868;2023-03-23T03:30:47;96055.03;;;10.82;100.00
6829;BME280;17930;48.592;8.868;2023-03-23T03:33:16;96063.81;;;10.86;100.00
6829;BME280;17930;48.592;8.868;2023-03-23T03:35:47;96061.88;;;10.78;100.00
6829;BME280;17930;48.592;8.868;2023-03-23T03:38:15;96067.38;;;10.63;100.00
6829;BME280;17930;48.592;8.868;2023-03-23T03:40:41;96066.78;;;10.66;100.00
6829;BME280;17930;48.592;8.868;2023-03-23T03:43:08;96067.94;;;10.60;100.00
6829;BME280;17930;48.592;8.868;2023-03-23T03:45:34;96063.03;;;10.99;100.00
6829;BME280;17930;48.592;8.868;2023-03-23T03:48:01;96057.06;;;11.12;100.00
6829;BME280;17930;48.592;8.868;2023-03-23T03:50:28;96060.41;;;10.99;100.00
6829;BME280;17930;48.592;8.868;2023-03-23T03:52:56;96060.06;;;10.92;100.00
6829;BME280;17930;48.592;8.868;2023-03-23T03:55:23;96063.03;;;10.99;100.00
6829;BME280;17930;48.592;8.868;2023-03-23T03:57:50;96056.94;;;10.90;100.00
6829;BME280;17930;48.592;8.868;2023-03-23T04:00:17;96060.50;;;10.80;100.00
6829;BME280;17930;48.592;8.868;2023-03-23T04:02:45;96055.31;;;10.67;100.00
6829;BME280;17930;48.592;8.868;2023-03-23T04:05:16;96052.88;;;10.57;100.00
6829;BME280;17930;48.592;8.868;2023-03-23T04:07:44;96056.25;;;10.58;100.00
6829;BME280;17930;48.592;8.868;2023-03-23T04:10:19;96056.47;;;10.74;100.00
6829;BME280;17930;48.592;8.868;2023-03-23T04:12:47;96063.13;;;10.67;100.00
6829;BME280;17930;48.592;8.868;2023-03-23T04:15:13;96061.38;;;11.03;100.00
6829;BME280;17930;48.592;8.868;2023-03-23T04:17:40;96057.91;;;11.07;100.00
6829;BME280;17930;48.592;8.868;2023-03-23T04:20:08;96058.97;;;11.33;100.00
6829;BME280;17930;48.592;8.868;2023-03-23T04:22:38;96054.59;;;11.28;100.00
6829;BME280;17930;48.592;8.868;2023-03-23T04:25:05;96061.56;;;11.20;100.00
6829;BME280;17930;48.592;8.868;2023-03-23T04:27:37;96057.53;;;11.00;100.00
6829;BME280;17930;48.592;8.868;2023-03-23T04:30:05;96054.06;;;11.05;100.00
6829;BME280;17930;48.592;8.868;2023-03-23T04:32:32;96058.09;;;11.11;100.00
6829;BME280;17930;48.592;8.868;2023-03-23T04:34:58;96056.72;;;11.26;100.00
6829;BME280;17930;48.592;8.868;2023-03-23T04:37:26;96055.16;;;11.39;100.00
6829;BME280;17930;48.592;8.868;2023-03-23T04:39:55;96048.66;;;11.63;100.00
6829;BME280;17930;48.592;8.868;2023-03-23T04:42:27;96046.16;;;11.58;100.00
6829;BME280;17930;48.592;8.868;2023-03-23T04:44:56;96050.13;;;11.42;100.00
6829;BME280;17930;48.592;8.868;2023-03-23T04:47:24;96056.13;;;11.43;100.00
6829;BME280;17930;48.592;8.868;2023-03-23T04:49:55;96059.25;;;11.31;100.00
6829;BME280;17930;48.592;8.868;2023-03-23T04:52:22;96064.56;;;11.26;100.00
6829;BME280;17930;48.592;8.868;2023-03-23T04:54:50;96060.69;;;11.24;100.00
6829;BME280;17930;48.592;8.868;2023-03-23T04:57:17;96059.06;;;11.28;100.00
6829;BME280;17930;48.592;8.868;2023-03-23T04:59:43;96056.31;;;11.46;100.00
6829;BME280;17930;48.592;8.868;2023-03-23T05:02:13;96059.69;;;11.47;100.00
6829;BME280;17930;48.592;8.868;2023-03-23T05:04:40;96059.97;;;11.45;100.00
6829;BME280;17930;48.592;8.868;2023-03-23T05:07:07;96062.91;;;11.57;100.00
6829;BME280;17930;48.592;8.868;2023-03-23T05:09:34;96062.69;;;11.67;100.00
6829;BME280;17930;48.592;8.868;2023-03-23T05:12:04;96055.09;;;11.79;100.00
6829;BME280;17930;48.592;8.868;2023-03-23T05:14:30;96060.22;;;11.84;100.00
6829;BME280;17930;48.592;8.868;2023-03-23T05:16:57;96056.66;;;11.67;100.00
6829;BME280;17930;48.592;8.868;2023-03-23T05:19:26;96056.03;;;11.61;100.00
6829;BME280;17930;48.592;8.868;2023-03-23T05:21:53;96054.72;;;11.72;100.00
6829;BME280;17930;48.592;8.868;2023-03-23T05:24:19;96053.78;;;11.68;100.00
6829;BME280;17930;48.592;8.868;2023-03-23T05:26:46;96043.34;;;11.68;100.00
6829;BME280;17930;48.592;8.868;2023-03-23T05:29:17;96046.19;;;11.80;100.00
6829;BME280;17930;48.592;8.868;2023-03-23T05:31:44;96039.44;;;12.01;100.00
6829;BME280;17930;48.592;8.868;2023-03-23T05:34:11;96043.63;;;12.10;100.00
6829;BME280;17930;48.592;8.868;2023-03-23T05:36:39;96048.91;;;12.19;100.00
6829;BME280;17930;48.592;8.868;2023-03-23T05:39:06;96048.06;;;12.31;100.00
6829;BME280;17930;48.592;8.868;2023-03-23T05:41:35;96050.28;;;12.38;100.00
6829;BME280;17930;48.592;8.868;2023-03-23T05:44:03;96037.53;;;12.45;100.00
6829;BME280;17930;48.592;8.868;2023-03-23T05:46:29;96050.19;;;12.51;100.00
6829;BME280;17930;48.592;8.868;2023-03-23T05:48:56;96056.84;;;12.57;100.00
6829;BME280;17930;48.592;8.868;2023-03-23T05:51:22;96048.50;;;12.55;100.00
6829;BME280;17930;48.592;8.868;2023-03-23T05:53:50;96055.16;;;12.61;100.00
6829;BME280;17930;48.592;8.868;2023-03-23T05:56:17;96049.03;;;12.66;100.00
6829;BME280;17930;48.592;8.868;2023-03-23T05:58:44;96061.22;;;12.70;100.00
6829;BME280;17930;48.592;8.868;2023-03-23T06:01:11;96065.25;;;12.76;100.00
6829;BME280;17930;48.592;8.868;2023-03-23T06:03:39;96066.63;;;12.82;100.00
6829;BME280;17930;48.592;8.868;2023-03-23T06:06:06;96071.19;;;12.90;100.00
6829;BME280;17930;48.592;8.868;2023-03-23T06:08:33;96073.81;;;12.90;100.00
6829;BME280;17930;48.592;8.868;2023-03-23T06:11:04;96080.91;;;12.98;100.00
6829;BME280;17930;48.592;8.868;2023-03-23T06:13:31;96080.44;;;12.96;100.00
6829;BME280;17930;48.592;8.868;2023-03-23T06:15:57;96084.47;;;13.02;100.00
6829;BME280;17930;48.592;8.868;2023-03-23T06:18:24;96082.91;;;13.01;100.00
6829;BME280;17930;48.592;8.868;2023-03-23T06:20:52;96094.31;;;13.05;100.00
6829;BME280;17930;48.592;8.868;2023-03-23T06:23:19;96089.44;;;13.12;100.00
6829;BME280;17930;48.592;8.868;2023-03-23T06:25:46;96096.66;;;13.15;100.00
6829;BME280;17930;48.592;8.868;2023-03-23T06:28:13;96101.59;;;13.16;100.00
6829;BME280;17930;48.592;8.868;2023-03-23T06:30:40;96111.81;;;13.26;100.00
6829;BME280;17930;48.592;8.868;2023-03-23T06:33:07;96105.06;;;13.33;100.00
6829;BME280;17930;48.592;8.868;2023-03-23T06:35:34;96111.72;;;13.39;100.00
6829;BME280;17930;48.592;8.868;2023-03-23T06:38:01;96113.72;;;13.42;100.00
6829;BME280;17930;48.592;8.868;2023-03-23T06:40:28;96114.94;;;13.36;100.00
6829;BME280;17930;48.592;8.868;2023-03-23T06:42:56;96109.72;;;13.45;100.00
6829;BME280;17930;48.592;8.868;2023-03-23T06:45:26;96118.22;;;13.50;100.00
6829;BME280;17930;48.592;8.868;2023-03-23T06:47:52;96120.69;;;13.55;100.00
6829;BME280;17930;48.592;8.868;2023-03-23T06:50:19;96127.00;;;13.63;100.00
6829;BME280;17930;48.592;8.868;2023-03-23T06:52:46;96133.66;;;13.77;100.00
6829;BME280;17930;48.592;8.868;2023-03-23T06:55:14;96133.38;;;13.79;100.00
6829;BME280;17930;48.592;8.868;2023-03-23T06:57:41;96129.97;;;13.78;100.00
6829;BME280;17930;48.592;8.868;2023-03-23T07:00:08;96136.28;;;13.85;100.00
6829;BME280;17930;48.592;8.868;2023-03-23T07:02:38;96123.50;;;13.84;100.00
6829;BME280;17930;48.592;8.868;2023-03-23T07:05:06;96126.91;;;13.93;100.00
6829;BME280;17930;48.592;8.868;2023-03-23T07:07:34;96134.78;;;13.93;100.00
6829;BME280;17930;48.592;8.868;2023-03-23T07:10:01;96134.16;;;13.96;100.00
6829;BME280;17930;48.592;8.868;2023-03-23T07:12:28;96143.28;;;13.90;100.00
6829;BME280;17930;48.592;8.868;2023-03-23T07:14:55;96138.31;;;13.80;100.00
6829;BME280;17930;48.592;8.868;2023-03-23T07:17:21;96145.09;;;13.81;100.00
6829;BME280;17930;48.592;8.868;2023-03-23T07:19:50;96148.47;;;13.73;100.00
6829;BME280;17930;48.592;8.868;2023-03-23T07:22:16;96149.97;;;13.66;100.00
6829;BME280;17930;48.592;8.868;2023-03-23T07:24:43;96156.34;;;13.73;100.00
6829;BME280;17930;48.592;8.868;2023-03-23T07:27:09;96162.81;;;13.76;100.00
6829;BME280;17930;48.592;8.868;2023-03-23T07:29:36;96166.53;;;13.75;100.00
6829;BME280;17930;48.592;8.868;2023-03-23T07:32:04;96165.63;;;13.87;100.00
6829;BME280;17930;48.592;8.868;2023-03-23T07:34:31;96171.81;;;13.91;100.00
6829;BME280;17930;48.592;8.868;2023-03-23T07:36:59;96174.47;;;14.08;100.00
6829;BME280;17930;48.592;8.868;2023-03-23T07:39:27;96177.38;;;14.15;100.00
6829;BME280;17930;48.592;8.868;2023-03-23T07:41:53;96171.72;;;14.38;100.00
6829;BME280;17930;48.592;8.868;2023-03-23T07:44:20;96169.38;;;14.54;100.00
6829;BME280;17930;48.592;8.868;2023-03-23T07:46:47;96174.94;;;14.78;100.00
6829;BME280;17930;48.592;8.868;2023-03-23T07:49:14;96173.47;;;14.97;100.00
6829;BME280;17930;48.592;8.868;2023-03-23T07:51:41;96166.19;;;15.11;100.00
6829;BME280;17930;48.592;8.868;2023-03-23T07:54:09;96160.75;;;15.33;100.00
6829;BME280;17930;48.592;8.868;2023-03-23T07:56:37;96168.34;;;15.17;100.00
6829;BME280;17930;48.592;8.868;2023-03-23T07:59:05;96172.34;;;15.32;100.00
6829;BME280;17930;48.592;8.868;2023-03-23T08:01:32;96168.88;;;15.39;100.00
6829;BME280;17930;48.592;8.868;2023-03-23T08:04:00;96171.66;;;15.43;100.00
6829;BME280;17930;48.592;8.868;2023-03-23T08:06:27;96173.19;;;15.52;100.00
6829;BME280;17930;48.592;8.868;2023-03-23T08:08:54;96178.06;;;15.91;100.00
6829;BME280;17930;48.592;8.868;2023-03-23T08:11:23;96178.34;;;15.98;100.00
6829;BME280;17930;48.592;8.868;2023-03-23T08:13:50;96177.44;;;15.94;100.00
6829;BME280;17930;48.592;8.868;2023-03-23T08:16:16;96175.50;;;16.03;100.00
6829;BME280;17930;48.592;8.868;2023-03-23T08:18:44;96181.25;;;15.76;100.00
6829;BME280;17930;48.592;8.868;2023-03-23T08:21:12;96184.28;;;15.87;100.00
6829;BME280;17930;48.592;8.868;2023-03-23T08:23:39;96199.09;;;15.71;100.00
6829;BME280;17930;48.592;8.868;2023-03-23T08:26:06;96206.31;;;15.37;100.00
6829;BME280;17930;48.592;8.868;2023-03-23T08:28:34;96204.94;;;15.31;100.00
6829;BME280;17930;48.592;8.868;2023-03-23T08:31:05;96211.94;;;15.18;100.00
6829;BME280;17930;48.592;8.868;2023-03-23T08:33:33;96206.34;;;15.20;100.00
6829;BME280;17930;48.592;8.868;2023-03-23T08:36:00;96210.09;;;15.19;100.00
6829;BME280;17930;48.592;8.868;2023-03-23T08:38:28;96199.06;;;15.34;100.00
6829;BME280;17930;48.592;8.868;2023-03-23T08:40:57;96202.31;;;15.31;100.00
6829;BME280;17930;48.592;8.868;2023-03-23T08:43:25;96209.22;;;15.43;100.00
6829;BME280;17930;48.592;8.868;2023-03-23T08:45:54;96224.75;;;15.20;100.00
6829;BME280;17930;48.592;8.868;2023-03-23T08:48:21;96216.53;;;15.30;100.00
6829;BME280;17930;48.592;8.868;2023-03-23T08:50:48;96233.41;;;15.29;100.00
6829;BME280;17930;48.592;8.868;2023-03-23T08:53:15;96234.75;;;15.43;100.00
6829;BME280;17930;48.592;8.868;2023-03-23T08:55:42;96236.97;;;15.33;100.00
6829;BME280;17930;48.592;8.868;2023-03-23T08:58:09;96234.03;;;15.26;100.00
6829;BME280;17930;48.592;8.868;2023-03-23T09:00:36;96239.44;;;15.21;100.00
6829;BME280;17930;48.592;8.868;2023-03-23T09:03:04;96249.00;;;15.25;100.00
6829;BME280;17930;48.592;8.868;2023-03-23T09:05:31;96234.94;;;15.30;100.00
6829;BME280;17930;48.592;8.868;2023-03-23T09:07:58;96245.19;;;15.23;100.00
6829;BME280;17930;48.592;8.868;2023-03-23T09:10:25;96244.25;;;15.19;100.00
6829;BME280;17930;48.592;8.868;2023-03-23T09:12:53;96240.53;;;15.20;100.00
6829;BME280;17930;48.592;8.868;2023-03-23T09:15:21;96239.41;;;15.38;100.00
6829;BME280;17930;48.592;8.868;2023-03-23T09:17:51;96246.94;;;15.47;100.00
6829;BME280;17930;48.592;8.868;2023-03-23T09:20:23;96245.63;;;15.70;100.00
6829;BME280;17930;48.592;8.868;2023-03-23T09:22:53;96249.13;;;15.45;100.00
6829;BME280;17930;48.592;8.868;2023-03-23T09:25:22;96266.09;;;15.56;100.00
6829;BME280;17930;48.592;8.868;2023-03-23T09:27:52;96272.56;;;15.67;100.00
6829;BME280;17930;48.592;8.868;2023-03-23T09:30:23;96271.97;;;15.53;100.00
6829;BME280;17930;48.592;8.868;2023-03-23T09:32:52;96279.59;;;15.38;100.00
6829;BME280;17930;48.592;8.868;2023-03-23T09:35:20;96284.81;;;15.46;100.00
6829;BME280;17930;48.592;8.868;2023-03-23T09:37:48;96289.66;;;15.28;100.00
6829;BME280;17930;48.592;8.868;2023-03-23T09:40:18;96295.22;;;15.09;100.00
6829;BME280;17930;48.592;8.868;2023-03-23T09:42:55;96283.34;;;15.12;100.00
6829;BME280;17930;48.592;8.868;2023-03-23T09:45:25;96284.41;;;15.28;100.00
6829;BME280;17930;48.592;8.868;2023-03-23T09:48:20;96281.63;;;15.33;100.00
6829;BME280;17930;48.592;8.868;2023-03-23T09:50:57;96271.44;;;15.23;100.00
6829;BME280;17930;48.592;8.868;2023-03-23T09:53:30;96271.13;;;15.24;100.00
6829;BME280;17930;48.592;8.868;2023-03-23T09:56:01;96280.69;;;15.45;100.00
6829;BME280;17930;48.592;8.868;2023-03-23T09:58:31;96264.56;;;15.55;100.00
6829;BME280;17930;48.592;8.868;2023-03-23T10:01:06;96265.97;;;15.90;100.00
6829;BME280;17930;48.592;8.868;2023-03-23T10:03:39;96269.41;;;15.82;100.00
6829;BME280;17930;48.592;8.868;2023-03-23T10:06:10;96255.97;;;15.75;100.00
6829;BME280;17930;48.592;8.868;2023-03-23T10:08:41;96257.69;;;16.08;100.00
6829;BME280;17930;48.592;8.868;2023-03-23T10:11:13;96257.00;;;16.69;100.00
6829;BME280;17930;48.592;8.868;2023-03-23T10:13:55;96252.75;;;16.96;100.00
6829;BME280;17930;48.592;8.868;2023-03-23T10:16:28;96254.81;;;16.91;100.00
6829;BME280;17930;48.592;8.868;2023-03-23T10:18:58;96268.25;;;16.98;100.00
6829;BME280;17930;48.592;8.868;2023-03-23T10:21:29;96260.66;;;16.76;100.00
6829;BME280;17930;48.592;8.868;2023-03-23T10:23:59;96267.53;;;16.48;100.00
6829;BME280;17930;48.592;8.868;2023-03-23T10:26:33;96266.09;;;16.31;100.00
6829;BME280;17930;48.592;8.868;2023-03-23T10:29:08;96274.69;;;16.40;100.00
6829;BME280;17930;48.592;8.868;2023-03-23T10:31:39;96271.38;;;16.51;100.00
6829;BME280;17930;48.592;8.868;2023-03-23T10:34:11;96275.13;;;16.70;100.00
6829;BME280;17930;48.592;8.868;2023-03-23T10:36:54;96277.69;;;16.58;100.00
6829;BME280;17930;48.592;8.868;2023-03-23T10:39:26;96267.53;;;16.89;100.00
6829;BME280;17930;48.592;8.868;2023-03-23T10:41:54;96270.56;;;17.32;100.00
6829;BME280;17930;48.592;8.868;2023-03-23T10:44:22;96269.38;;;17.73;100.00
6829;BME280;17930;48.592;8.868;2023-03-23T10:46:55;96268.50;;;17.81;100.00
6829;BME280;17930;48.592;8.868;2023-03-23T10:49:25;96274.22;;;17.95;100.00
6829;BME280;17930;48.592;8.868;2023-03-23T10:51:59;96270.06;;;17.94;100.00
6829;BME280;17930;48.592;8.868;2023-03-23T10:54:32;96267.84;;;18.08;100.00
6829;BME280;17930;48.592;8.868;2023-03-23T10:57:12;96272.13;;;18.00;100.00
6829;BME280;17930;48.592;8.868;2023-03-23T10:59:40;96278.69;;;17.71;100.00
6829;BME280;17930;48.592;8.868;2023-03-23T11:02:16;96278.09;;;17.42;100.00
6829;BME280;17930;48.592;8.868;2023-03-23T11:04:46;96280.03;;;17.33;100.00
6829;BME280;17930;48.592;8.868;2023-03-23T11:07:19;96280.44;;;17.23;100.00
6829;BME280;17930;48.592;8.868;2023-03-23T11:09:55;96271.28;;;16.88;100.00
6829;BME280;17930;48.592;8.868;2023-03-23T11:12:23;96262.22;;;16.57;100.00
6829;BME280;17930;48.592;8.868;2023-03-23T11:14:50;96260.19;;;16.34;100.00
6829;BME280;17930;48.592;8.868;2023-03-23T11:17:23;96264.22;;;16.60;100.00
6829;BME280;17930;48.592;8.868;2023-03-23T11:19:51;96246.25;;;16.94;100.00
6829;BME280;17930;48.592;8.868;2023-03-23T11:22:25;96251.28;;;17.40;100.00
6829;BME280;17930;48.592;8.868;2023-03-23T11:24:54;96251.75;;;17.53;100.00
6829;BME280;17930;48.592;8.868;2023-03-23T11:27:23;96239.13;;;17.59;100.00
6829;BME280;17930;48.592;8.868;2023-03-23T11:29:52;96242.88;;;17.82;100.00
6829;BME280;17930;48.592;8.868;2023-03-23T11:32:23;96250.03;;;17.93;100.00
6829;BME280;17930;48.592;8.868;2023-03-23T11:34:54;96244.53;;;18.10;100.00
6829;BME280;17930;48.592;8.868;2023-03-23T11:37:28;96244.97;;;17.64;100.00
6829;BME280;17930;48.592;8.868;2023-03-23T11:39:57;96242.09;;;17.57;100.00
6829;BME280;17930;48.592;8.868;2023-03-23T11:42:26;96233.97;;;17.86;100.00
6829;BME280;17930;48.592;8.868;2023-03-23T11:45:13;96233.31;;;18.01;100.00
6829;BME280;17930;48.592;8.868;2023-03-23T11:47:45;96239.13;;;18.06;100.00
6829;BME280;17930;48.592;8.868;2023-03-23T11:50:19;96234.22;;;18.17;100.00
6829;BME280;17930;48.592;8.868;2023-03-23T11:52:53;96236.75;;;18.76;100.00
6829;BME280;17930;48.592;8.868;2023-03-23T11:55:24;96232.34;;;18.68;100.00
6829;BME280;17930;48.592;8.868;2023-03-23T11:57:54;96226.31;;;18.56;100.00
6829;BME280;17930;48.592;8.868;2023-03-23T12:00:23;96226.47;;;18.12;100.00
6829;BME280;17930;48.592;8.868;2023-03-23T12:03:32;96224.28;;;18.26;100.00
6829;BME280;17930;48.592;8.868;2023-03-23T12:06:07;96226.47;;;18.12;100.00
6829;BME280;17930;48.592;8.868;2023-03-23T12:08:53;96231.00;;;17.88;100.00
6829;BME280;17930;48.592;8.868;2023-03-23T12:11:29;96227.81;;;17.82;100.00
6829;BME280;17930;48.592;8.868;2023-03-23T12:14:08;96222.19;;;17.72;100.00
6829;BME280;17930;48.592;8.868;2023-03-23T12:16:50;96224.72;;;17.56;100.00
6829;BME280;17930;48.592;8.868;2023-03-23T12:19:24;96226.69;;;17.59;100.00
6829;BME280;17930;48.592;8.868;2023-03-23T12:22:01;96229.75;;;17.49;100.00
6829;BME280;17930;48.592;8.868;2023-03-23T12:24:43;96228.94;;;17.81;100.00
6829;BME280;17930;48.592;8.868;2023-03-23T12:27:19;96231.09;;;17.67;100.00
6829;BME280;17930;48.592;8.868;2023-03-23T12:29:58;96223.94;;;17.56;100.00
6829;BME280;17930;48.592;8.868;2023-03-23T12:32:38;96226.06;;;17.74;100.00
6829;BME280;17930;48.592;8.868;2023-03-23T12:35:18;96222.53;;;17.82;100.00
6829;BME280;17930;48.592;8.868;2023-03-23T12:37:57;96216.16;;;18.07;100.00
6829;BME280;17930;48.592;8.868;2023-03-23T12:40:40;96214.75;;;17.86;100.00
6829;BME280;17930;48.592;8.868;2023-03-23T12:43:17;96220.56;;;17.91;100.00
6829;BME280;17930;48.592;8.868;2023-03-23T12:45:58;96214.31;;;18.58;100.00
6829;BME280;17930;48.592;8.868;2023-03-23T12:48:33;96213.03;;;18.52;100.00
6829;BME280;17930;48.592;8.868;2023-03-23T12:51:18;96211.06;;;18.77;100.00
6829;BME280;17930;48.592;8.868;2023-03-23T12:53:53;96219.13;;;18.68;100.00
6829;BME280;17930;48.592;8.868;2023-03-23T12:56:28;96207.31;;;18.50;100.00
6829;BME280;17930;48.592;8.868;2023-03-23T12:59:02;96205.09;;;18.52;100.00
6829;BME280;17930;48.592;8.868;2023-03-23T13:01:34;96200.22;;;18.66;100.00
6829;BME280;17930;48.592;8.868;2023-03-23T13:04:07;96193.22;;;18.86;100.00
6829;BME280;17930;48.592;8.868;2023-03-23T13:06:37;96182.91;;;19.39;100.00
6829;BME280;17930;48.592;8.868;2023-03-23T13:09:09;96187.25;;;19.77;100.00
6829;BME280;17930;48.592;8.868;2023-03-23T13:11:40;96184.72;;;19.50;100.00
6829;BME280;17930;48.592;8.868;2023-03-23T13:14:33;96179.66;;;18.87;100.00
6829;BME280;17930;48.592;8.868;2023-03-23T13:17:10;96185.50;;;19.08;100.00